createdAt,value
2023-05-22T00:01:40.121Z,16.20
2023-05-22T00:04:06.751Z,16.10
2023-05-22T00:06:33.380Z,16.00
2023-05-22T00:09:00.176Z,16.00
2023-05-22T00:11:26.872Z,15.90
2023-05-22T00:13:53.570Z,15.80
2023-05-22T00:16:20.294Z,15.70
2023-05-22T00:18:46.926Z,15.70
2023-05-22T00:21:13.584Z,15.60
2023-05-22T00:23:40.203Z,15.60
2023-05-22T00:26:06.804Z,15.50
2023-05-22T00:28:33.451Z,15.50
2023-05-22T00:31:00.133Z,15.40
2023-05-22T00:33:26.741Z,15.40
2023-05-22T00:35:53.337Z,15.40
2023-05-22T00:38:30.274Z,15.30
2023-05-22T00:40:57.087Z,15.30
2023-05-22T00:43:23.698Z,15.20
2023-05-22T00:45:50.307Z,15.10
2023-05-22T00:48:16.890Z,15.00
2023-05-22T00:50:43.716Z,15.00
2023-05-22T00:53:10.719Z,15.00
2023-05-22T00:55:37.542Z,14.90
2023-05-22T00:58:05.990Z,14.90
2023-05-22T01:00:32.970Z,14.90
2023-05-22T01:02:59.718Z,14.90
2023-05-22T01:05:26.545Z,14.90
2023-05-22T01:07:53.238Z,14.90
2023-05-22T01:10:20.096Z,14.90
2023-05-22T01:13:05.109Z,14.90
2023-05-22T01:15:55.680Z,14.80
2023-05-22T01:18:50.431Z,14.60
2023-05-22T01:21:25.347Z,14.50
2023-05-22T01:24:29.537Z,14.60
2023-05-22T01:27:04.737Z,14.60
2023-05-22T01:30:08.747Z,14.50
2023-05-22T01:32:36.742Z,14.50
2023-05-22T01:35:07.785Z,14.40
2023-05-22T01:37:36.040Z,14.30
2023-05-22T01:40:03.163Z,14.30
2023-05-22T01:42:30.078Z,14.20
2023-05-22T01:44:57.667Z,14.10
2023-05-22T01:47:24.312Z,14.10
2023-05-22T01:49:51.272Z,14.00
2023-05-22T01:52:34.975Z,14.00
2023-05-22T01:55:11.129Z,14.00
2023-05-22T01:57:47.703Z,14.00
2023-05-22T02:00:16.869Z,13.90
2023-05-22T02:03:03.900Z,13.90
2023-05-22T02:05:33.398Z,13.70
2023-05-22T02:08:01.097Z,13.70
2023-05-22T02:10:29.306Z,13.60
2023-05-22T02:12:56.245Z,13.70
2023-05-22T02:15:22.851Z,13.70
2023-05-22T02:17:49.556Z,13.60
2023-05-22T02:20:16.594Z,13.60
2023-05-22T02:22:44.666Z,13.50
2023-05-22T02:25:12.118Z,13.60
2023-05-22T02:27:38.699Z,13.60
2023-05-22T02:30:06.087Z,13.50
2023-05-22T02:32:32.817Z,13.50
2023-05-22T02:34:59.451Z,13.40
2023-05-22T02:37:26.056Z,13.30
2023-05-22T02:39:52.686Z,13.30
2023-05-22T02:42:19.307Z,13.20
2023-05-22T02:44:45.898Z,13.20
2023-05-22T02:47:12.568Z,13.20
2023-05-22T02:49:39.200Z,13.20
2023-05-22T02:52:05.962Z,13.20
2023-05-22T02:54:32.609Z,13.10
2023-05-22T02:56:59.223Z,13.00
2023-05-22T02:59:25.861Z,13.00
2023-05-22T03:01:52.586Z,13.00
2023-05-22T03:04:19.387Z,13.00
2023-05-22T03:06:46.052Z,13.00
2023-05-22T03:09:12.711Z,13.00
2023-05-22T03:11:39.304Z,13.00
2023-05-22T03:14:05.878Z,12.90
2023-05-22T03:16:32.540Z,12.90
2023-05-22T03:19:09.562Z,12.90
2023-05-22T03:21:36.567Z,12.80
2023-05-22T03:24:03.580Z,12.80
2023-05-22T03:26:30.349Z,12.70
2023-05-22T03:28:57.342Z,12.70
2023-05-22T03:31:29.030Z,12.70
2023-05-22T03:33:55.681Z,12.60
2023-05-22T03:36:22.324Z,12.60
2023-05-22T03:38:49.347Z,12.50
2023-05-22T03:41:15.963Z,12.40
2023-05-22T03:43:44.901Z,12.40
2023-05-22T03:46:11.878Z,12.40
2023-05-22T03:48:39.224Z,12.50
2023-05-22T03:51:06.152Z,12.50
2023-05-22T03:53:32.776Z,12.50
2023-05-22T03:55:59.615Z,12.50
2023-05-22T03:58:26.363Z,12.50
2023-05-22T04:00:54.430Z,12.40
2023-05-22T04:03:21.265Z,12.40
2023-05-22T04:05:48.192Z,12.40
2023-05-22T04:08:14.847Z,12.40
2023-05-22T04:10:41.612Z,12.50
2023-05-22T04:13:08.345Z,12.50
2023-05-22T04:15:35.008Z,12.50
2023-05-22T04:18:01.756Z,12.50
2023-05-22T04:20:28.430Z,12.50
2023-05-22T04:22:55.078Z,12.50
2023-05-22T04:25:21.934Z,12.60
2023-05-22T04:27:51.625Z,12.50
2023-05-22T04:30:18.403Z,12.50
2023-05-22T04:32:45.163Z,12.50
2023-05-22T04:35:11.817Z,12.40
2023-05-22T04:37:41.216Z,12.50
2023-05-22T04:40:08.854Z,12.50
2023-05-22T04:42:35.924Z,12.50
2023-05-22T04:45:02.720Z,12.60
2023-05-22T04:47:30.209Z,12.70
2023-05-22T04:49:57.427Z,12.70
2023-05-22T04:52:24.307Z,12.80
2023-05-22T04:54:50.897Z,12.80
2023-05-22T04:57:17.984Z,12.90
2023-05-22T04:59:44.585Z,13.00
2023-05-22T05:02:11.580Z,13.00
2023-05-22T05:04:38.237Z,12.90
2023-05-22T05:07:05.131Z,12.90
2023-05-22T05:09:31.834Z,12.90
2023-05-22T05:11:58.436Z,13.00
2023-05-22T05:14:25.718Z,13.20
2023-05-22T05:16:52.363Z,13.30
2023-05-22T05:19:19.590Z,13.40
2023-05-22T05:21:46.307Z,13.40
2023-05-22T05:24:12.909Z,13.50
2023-05-22T05:26:39.519Z,13.50
2023-05-22T05:29:06.114Z,13.50
2023-05-22T05:31:32.740Z,13.60
2023-05-22T05:33:59.363Z,13.70
2023-05-22T05:36:25.935Z,13.80
2023-05-22T05:38:52.534Z,13.80
2023-05-22T05:41:19.195Z,13.90
2023-05-22T05:43:45.838Z,13.90
2023-05-22T05:46:12.931Z,14.00
2023-05-22T05:48:39.625Z,14.10
2023-05-22T05:51:06.267Z,14.30
2023-05-22T05:53:33.125Z,14.30
2023-05-22T05:55:59.750Z,14.30
2023-05-22T05:58:26.371Z,14.40
2023-05-22T06:00:53.213Z,14.60
2023-05-22T06:03:19.921Z,14.60
2023-05-22T06:05:46.919Z,14.70
2023-05-22T06:08:13.567Z,14.70
2023-05-22T06:10:40.450Z,14.80
2023-05-22T06:13:07.278Z,14.90
2023-05-22T06:15:33.888Z,15.10
2023-05-22T06:18:00.553Z,15.30
2023-05-22T06:20:27.243Z,15.40
2023-05-22T06:22:53.949Z,15.60
2023-05-22T06:25:20.569Z,15.70
2023-05-22T06:27:47.179Z,15.90
2023-05-22T06:30:14.770Z,16.00
2023-05-22T06:32:41.768Z,16.10
2023-05-22T06:35:09.029Z,16.30
2023-05-22T06:37:35.972Z,16.40
2023-05-22T06:40:02.882Z,16.40
2023-05-22T06:42:29.460Z,16.50
2023-05-22T06:44:56.053Z,16.60
2023-05-22T06:47:22.722Z,16.50
2023-05-22T06:49:49.364Z,16.70
2023-05-22T06:52:15.979Z,16.80
2023-05-22T06:54:42.633Z,16.90
2023-05-22T06:57:09.956Z,16.90
2023-05-22T06:59:36.671Z,16.80
2023-05-22T07:02:03.742Z,16.90
2023-05-22T07:04:30.351Z,16.90
2023-05-22T07:06:56.961Z,17.00
2023-05-22T07:09:23.549Z,17.20
2023-05-22T07:11:50.267Z,17.30
2023-05-22T07:14:16.882Z,17.40
2023-05-22T07:16:43.907Z,17.40
2023-05-22T07:19:10.563Z,17.70
2023-05-22T07:21:37.465Z,17.90
2023-05-22T07:24:04.310Z,17.90
2023-05-22T07:26:30.910Z,18.00
2023-05-22T07:28:57.638Z,18.10
2023-05-22T07:31:24.380Z,18.20
2023-05-22T07:33:51.015Z,18.40
2023-05-22T07:36:17.656Z,18.50
2023-05-22T07:38:44.608Z,18.70
2023-05-22T07:41:11.230Z,18.70
2023-05-22T07:43:37.833Z,18.80
2023-05-22T07:46:04.824Z,18.90
2023-05-22T07:48:31.614Z,19.10
2023-05-22T07:50:58.211Z,19.20
2023-05-22T07:53:24.837Z,19.30
2023-05-22T07:55:51.484Z,19.30
2023-05-22T07:58:18.083Z,19.20
2023-05-22T08:00:44.697Z,19.30
2023-05-22T08:03:11.430Z,19.30
2023-05-22T08:05:38.157Z,19.60
2023-05-22T08:08:04.863Z,19.60
2023-05-22T08:10:46.413Z,19.80
2023-05-22T08:13:19.068Z,19.90
2023-05-22T08:15:45.714Z,19.80
2023-05-22T08:18:12.378Z,19.80
2023-05-22T08:20:39.245Z,20.00
2023-05-22T08:23:06.004Z,20.10
2023-05-22T08:25:32.584Z,20.10
2023-05-22T08:27:59.246Z,20.10
2023-05-22T08:30:26.012Z,20.20
2023-05-22T08:32:52.680Z,20.10
2023-05-22T08:35:19.318Z,20.20
2023-05-22T08:37:45.904Z,20.30
2023-05-22T08:40:14.406Z,20.40
2023-05-22T08:42:42.183Z,20.60
2023-05-22T08:45:09.150Z,20.60
2023-05-22T08:47:37.063Z,20.60
2023-05-22T08:50:04.721Z,20.80
2023-05-22T08:52:39.521Z,21.00
2023-05-22T08:55:07.133Z,21.20
2023-05-22T08:57:34.528Z,21.30
2023-05-22T09:00:01.230Z,21.30
2023-05-22T09:02:28.368Z,21.50
2023-05-22T09:04:54.994Z,21.40
2023-05-22T09:07:21.776Z,21.40
2023-05-22T09:09:48.901Z,21.50
2023-05-22T09:12:15.532Z,21.60
2023-05-22T09:14:43.147Z,21.60
2023-05-22T09:17:14.230Z,21.70
2023-05-22T09:19:47.349Z,22.00
2023-05-22T09:22:14.604Z,22.00
2023-05-22T09:24:43.287Z,22.10
2023-05-22T09:27:11.132Z,22.10
2023-05-22T09:29:55.451Z,22.00
2023-05-22T09:32:22.262Z,22.10
2023-05-22T09:34:49.519Z,22.20
2023-05-22T09:37:17.556Z,22.40
2023-05-22T09:39:47.692Z,22.60
2023-05-22T09:42:17.204Z,22.70
2023-05-22T09:44:48.905Z,22.70
2023-05-22T09:47:15.550Z,22.60
2023-05-22T09:49:43.150Z,22.30
2023-05-22T09:52:10.637Z,22.40
2023-05-22T09:54:49.396Z,22.50
2023-05-22T09:57:19.463Z,22.70
2023-05-22T09:59:50.820Z,22.60
2023-05-22T10:02:18.574Z,22.70
2023-05-22T10:04:48.611Z,22.90
2023-05-22T10:07:17.288Z,22.90
2023-05-22T10:09:46.508Z,23.00
2023-05-22T10:12:15.014Z,23.00
2023-05-22T10:14:42.009Z,23.10
2023-05-22T10:17:12.472Z,23.10
2023-05-22T10:19:42.300Z,23.20
2023-05-22T10:22:11.801Z,23.30
2023-05-22T10:24:40.236Z,23.20
2023-05-22T10:27:06.884Z,23.30
2023-05-22T10:29:50.688Z,23.50
2023-05-22T10:32:33.410Z,23.60
2023-05-22T10:35:27.221Z,23.60
2023-05-22T10:37:56.466Z,23.70
2023-05-22T10:40:27.148Z,23.70
2023-05-22T10:42:57.340Z,23.70
2023-05-22T10:45:26.425Z,23.60
2023-05-22T10:48:09.676Z,23.70
2023-05-22T10:50:36.493Z,23.70
2023-05-22T10:53:25.726Z,23.80
2023-05-22T10:55:59.544Z,24.10
2023-05-22T10:58:31.283Z,24.10
2023-05-22T11:01:17.937Z,24.30
2023-05-22T11:04:06.371Z,24.30
2023-05-22T11:06:41.658Z,24.30
2023-05-22T11:09:29.444Z,24.30
2023-05-22T11:12:15.652Z,24.30
2023-05-22T11:14:52.594Z,24.40
2023-05-22T11:17:29.772Z,24.50
2023-05-22T11:20:05.710Z,24.80
2023-05-22T11:22:33.477Z,24.80
2023-05-22T11:25:00.418Z,24.80
2023-05-22T11:27:27.398Z,24.80
2023-05-22T11:29:54.764Z,25.10
2023-05-22T11:32:22.853Z,25.00
2023-05-22T11:34:49.843Z,25.10
2023-05-22T11:37:20.465Z,25.10
2023-05-22T11:39:57.917Z,25.10
2023-05-22T11:42:24.893Z,25.20
2023-05-22T11:44:51.520Z,25.30
2023-05-22T11:47:18.663Z,25.30
2023-05-22T11:49:45.872Z,25.40
2023-05-22T11:52:13.121Z,25.50
2023-05-22T11:54:39.743Z,25.70
2023-05-22T11:57:09.696Z,25.60
2023-05-22T11:59:36.370Z,25.60
2023-05-22T12:02:02.965Z,25.70
2023-05-22T12:04:29.600Z,25.80
2023-05-22T12:06:56.577Z,26.00
2023-05-22T12:09:23.480Z,26.20
2023-05-22T12:11:50.123Z,26.40
2023-05-22T12:14:16.727Z,26.40
2023-05-22T12:16:43.490Z,26.40
2023-05-22T12:19:11.473Z,26.30
2023-05-22T12:21:38.840Z,26.40
2023-05-22T12:24:06.268Z,26.60
2023-05-22T12:26:33.135Z,26.60
2023-05-22T12:28:59.957Z,26.60
2023-05-22T12:31:26.964Z,26.70
2023-05-22T12:33:54.557Z,26.80
2023-05-22T12:36:21.438Z,26.70
2023-05-22T12:38:48.098Z,26.80
2023-05-22T12:41:14.739Z,26.90
2023-05-22T12:43:41.384Z,27.10
2023-05-22T12:46:08.056Z,27.20
2023-05-22T12:48:34.729Z,27.30
2023-05-22T12:51:01.427Z,27.40
2023-05-22T12:53:28.070Z,27.50
2023-05-22T12:55:54.657Z,27.40
2023-05-22T12:58:21.242Z,27.20
2023-05-22T13:00:47.894Z,27.10
2023-05-22T13:03:14.511Z,27.20
2023-05-22T13:05:41.325Z,27.10
2023-05-22T13:08:08.423Z,27.40
2023-05-22T13:10:35.040Z,27.50
2023-05-22T13:13:01.721Z,27.50
2023-05-22T13:15:28.346Z,27.40
2023-05-22T13:17:55.519Z,27.40
2023-05-22T13:20:22.303Z,27.50
2023-05-22T13:22:49.191Z,27.50
2023-05-22T13:25:15.799Z,27.60
2023-05-22T13:27:42.533Z,27.40
2023-05-22T13:30:09.570Z,27.40
2023-05-22T13:32:36.266Z,27.40
2023-05-22T13:35:03.066Z,27.40
2023-05-22T13:37:30.016Z,27.20
2023-05-22T13:39:56.624Z,27.10
2023-05-22T13:42:23.264Z,27.30
2023-05-22T13:44:49.919Z,27.20
2023-05-22T13:47:16.618Z,27.20
2023-05-22T13:49:43.325Z,27.30
2023-05-22T13:52:09.965Z,27.30
2023-05-22T13:54:36.621Z,27.40
2023-05-22T13:57:03.230Z,27.40
2023-05-22T13:59:29.883Z,27.20
2023-05-22T14:01:56.629Z,27.40
2023-05-22T14:04:23.539Z,27.20
2023-05-22T14:06:50.332Z,27.20
2023-05-22T14:09:17.197Z,27.00
2023-05-22T14:11:43.917Z,27.10
2023-05-22T14:14:10.571Z,27.10
2023-05-22T14:16:37.230Z,26.90
2023-05-22T14:19:04.009Z,26.90
2023-05-22T14:21:31.118Z,26.90
2023-05-22T14:23:57.748Z,27.00
2023-05-22T14:26:24.518Z,27.00
2023-05-22T14:28:51.288Z,26.80
2023-05-22T14:31:20.086Z,26.90
2023-05-22T14:33:46.979Z,26.90
2023-05-22T14:36:13.592Z,26.90
2023-05-22T14:38:40.178Z,26.90
2023-05-22T14:41:06.811Z,26.80
2023-05-22T14:43:33.658Z,27.00
2023-05-22T14:46:00.304Z,26.80
2023-05-22T14:48:27.057Z,26.90
2023-05-22T14:50:53.756Z,26.90
2023-05-22T14:53:20.608Z,26.90
2023-05-22T14:55:47.376Z,26.80
2023-05-22T14:58:14.303Z,26.80
2023-05-22T15:00:41.088Z,26.90
2023-05-22T15:03:07.727Z,26.70
2023-05-22T15:05:34.464Z,26.60
2023-05-22T15:08:01.103Z,26.70
2023-05-22T15:10:27.748Z,26.80
2023-05-22T15:12:54.365Z,26.80
2023-05-22T15:15:21.083Z,26.70
2023-05-22T15:17:47.734Z,26.70
2023-05-22T15:20:14.410Z,26.90
2023-05-22T15:22:40.974Z,26.90
2023-05-22T15:25:09.327Z,26.80
2023-05-22T15:27:36.238Z,26.80
2023-05-22T15:30:04.067Z,26.90
2023-05-22T15:32:32.782Z,26.90
2023-05-22T15:34:59.446Z,27.00
2023-05-22T15:37:26.558Z,27.00
2023-05-22T15:39:53.181Z,26.90
2023-05-22T15:42:19.902Z,26.80
2023-05-22T15:44:46.517Z,26.70
2023-05-22T15:47:13.110Z,26.60
2023-05-22T15:49:39.995Z,26.50
2023-05-22T15:52:06.636Z,26.60
2023-05-22T15:54:33.247Z,26.50
2023-05-22T15:56:59.834Z,26.40
2023-05-22T15:59:26.417Z,26.40
2023-05-22T16:01:53.018Z,26.30
2023-05-22T16:04:19.685Z,26.30
2023-05-22T16:06:46.313Z,26.20
2023-05-22T16:09:12.927Z,26.20
2023-05-22T16:11:39.533Z,26.10
2023-05-22T16:14:06.121Z,26.00
2023-05-22T16:16:32.858Z,26.00
2023-05-22T16:18:59.541Z,25.90
2023-05-22T16:21:26.164Z,25.90
2023-05-22T16:23:52.907Z,25.80
2023-05-22T16:26:19.607Z,25.80
2023-05-22T16:28:46.204Z,25.80
2023-05-22T16:31:18.334Z,25.80
2023-05-22T16:33:45.804Z,25.70
2023-05-22T16:36:12.417Z,25.60
2023-05-22T16:38:39.017Z,25.60
2023-05-22T16:41:05.748Z,25.60
2023-05-22T16:43:32.333Z,25.60
2023-05-22T16:45:58.912Z,25.50
2023-05-22T16:48:25.618Z,25.50
2023-05-22T16:50:52.270Z,25.40
2023-05-22T16:53:18.907Z,25.40
2023-05-22T16:55:45.641Z,25.40
2023-05-22T16:58:12.288Z,25.40
2023-05-22T17:00:38.984Z,25.30
2023-05-22T17:03:06.462Z,25.30
2023-05-22T17:05:34.151Z,25.20
2023-05-22T17:08:00.750Z,25.10
2023-05-22T17:10:27.336Z,25.10
2023-05-22T17:12:53.946Z,25.10
2023-05-22T17:15:20.754Z,25.10
2023-05-22T17:17:47.461Z,25.10
2023-05-22T17:20:14.065Z,25.00
2023-05-22T17:22:42.233Z,25.00
2023-05-22T17:25:09.381Z,24.90
2023-05-22T17:27:36.965Z,25.00
2023-05-22T17:30:04.995Z,24.90
2023-05-22T17:32:31.809Z,24.80
2023-05-22T17:34:58.775Z,24.80
2023-05-22T17:37:25.389Z,24.60
2023-05-22T17:39:51.989Z,24.50
2023-05-22T17:42:18.636Z,24.50
2023-05-22T17:44:45.384Z,24.40
2023-05-22T17:47:12.119Z,24.30
2023-05-22T17:49:38.764Z,24.20
2023-05-22T17:52:05.611Z,24.30
2023-05-22T17:54:35.632Z,24.10
2023-05-22T17:57:02.481Z,24.10
2023-05-22T17:59:29.269Z,24.00
2023-05-22T18:01:56.141Z,23.90
2023-05-22T18:04:22.847Z,23.80
2023-05-22T18:06:49.479Z,23.70
2023-05-22T18:09:16.132Z,23.50
2023-05-22T18:11:42.773Z,23.50
2023-05-22T18:14:09.371Z,23.40
2023-05-22T18:16:36.091Z,23.30
2023-05-22T18:19:02.849Z,23.20
2023-05-22T18:21:29.548Z,23.10
2023-05-22T18:23:56.162Z,23.10
2023-05-22T18:26:22.877Z,23.00
2023-05-22T18:28:49.457Z,22.90
2023-05-22T18:31:16.142Z,22.80
2023-05-22T18:33:42.751Z,22.70
2023-05-22T18:36:09.338Z,22.60
2023-05-22T18:38:36.239Z,22.50
2023-05-22T18:41:02.843Z,22.40
2023-05-22T18:43:29.433Z,22.30
2023-05-22T18:45:57.224Z,22.30
2023-05-22T18:48:27.090Z,22.20
2023-05-22T18:50:54.006Z,22.10
2023-05-22T18:53:22.103Z,22.10
2023-05-22T18:55:48.766Z,22.00
2023-05-22T18:58:15.402Z,21.90
2023-05-22T19:00:42.179Z,21.80
2023-05-22T19:03:08.953Z,21.70
2023-05-22T19:05:35.556Z,21.60
2023-05-22T19:08:02.271Z,21.60
2023-05-22T19:10:28.874Z,21.50
2023-05-22T19:12:55.526Z,21.40
2023-05-22T19:15:22.693Z,21.30
2023-05-22T19:17:49.354Z,21.20
2023-05-22T19:20:16.096Z,21.10
2023-05-22T19:22:42.709Z,21.00
2023-05-22T19:25:09.444Z,20.90
2023-05-22T19:27:38.146Z,20.80
2023-05-22T19:30:06.606Z,20.70
2023-05-22T19:32:33.260Z,20.60
2023-05-22T19:34:59.905Z,20.30
2023-05-22T19:37:26.548Z,20.20
2023-05-22T19:39:54.205Z,20.10
2023-05-22T19:42:20.812Z,20.20
2023-05-22T19:44:47.428Z,20.20
2023-05-22T19:47:14.056Z,20.30
2023-05-22T19:49:40.657Z,20.30
2023-05-22T19:52:07.352Z,20.30
2023-05-22T19:54:34.956Z,20.30
2023-05-22T19:57:02.388Z,20.30
2023-05-22T19:59:29.347Z,20.20
2023-05-22T20:01:56.012Z,20.20
2023-05-22T20:04:22.829Z,20.20
2023-05-22T20:06:49.483Z,20.10
2023-05-22T20:09:16.824Z,20.00
2023-05-22T20:11:43.478Z,20.00
2023-05-22T20:14:11.356Z,19.90
2023-05-22T20:16:38.011Z,19.80
2023-05-22T20:19:04.705Z,19.70
2023-05-22T20:21:31.356Z,19.70
2023-05-22T20:23:58.024Z,19.70
2023-05-22T20:26:24.627Z,19.70
2023-05-22T20:28:51.262Z,19.60
2023-05-22T20:31:18.008Z,19.60
2023-05-22T20:33:44.652Z,19.60
2023-05-22T20:36:11.276Z,19.60
2023-05-22T20:38:37.885Z,19.60
2023-05-22T20:41:04.465Z,19.50
2023-05-22T20:43:31.070Z,19.50
2023-05-22T20:45:57.707Z,19.40
2023-05-22T20:48:24.416Z,19.40
2023-05-22T20:50:51.098Z,19.40
2023-05-22T20:53:17.814Z,19.30
2023-05-22T20:55:44.517Z,19.00
2023-05-22T20:58:11.244Z,19.00
2023-05-22T21:00:37.967Z,19.00
2023-05-22T21:03:04.665Z,18.90
2023-05-22T21:05:31.304Z,18.80
2023-05-22T21:07:58.122Z,18.80
2023-05-22T21:10:24.718Z,18.80
2023-05-22T21:12:51.374Z,18.80
2023-05-22T21:15:17.992Z,18.80
2023-05-22T21:17:44.638Z,18.80
2023-05-22T21:20:11.478Z,18.80
2023-05-22T21:22:38.079Z,18.80
2023-05-22T21:25:05.046Z,18.60
2023-05-22T21:27:31.660Z,18.50
2023-05-22T21:29:58.279Z,18.30
2023-05-22T21:32:24.925Z,18.20
2023-05-22T21:34:51.572Z,18.10
2023-05-22T21:37:18.206Z,18.10
2023-05-22T21:39:44.839Z,18.00
2023-05-22T21:42:11.447Z,18.00
2023-05-22T21:44:38.325Z,18.00
2023-05-22T21:47:05.160Z,18.00
2023-05-22T21:49:31.828Z,18.00
2023-05-22T21:51:58.747Z,18.10
2023-05-22T21:54:25.428Z,18.10
2023-05-22T21:56:52.078Z,18.10
2023-05-22T21:59:18.721Z,18.10
2023-05-22T22:01:45.422Z,18.20
2023-05-22T22:04:12.154Z,18.10
2023-05-22T22:06:38.807Z,18.10
2023-05-22T22:09:05.431Z,18.00
2023-05-22T22:11:32.071Z,18.00
2023-05-22T22:13:58.672Z,17.90
2023-05-22T22:16:25.426Z,17.80
2023-05-22T22:18:52.108Z,17.80
2023-05-22T22:21:18.726Z,17.70
2023-05-22T22:23:45.392Z,17.60
2023-05-22T22:26:12.010Z,17.60
2023-05-22T22:28:38.637Z,17.50
2023-05-22T22:31:05.326Z,17.40
2023-05-22T22:33:31.915Z,17.30
2023-05-22T22:35:58.512Z,17.30
2023-05-22T22:38:25.141Z,17.20
2023-05-22T22:40:51.741Z,17.20
2023-05-22T22:43:19.174Z,17.20
2023-05-22T22:45:45.846Z,17.20
2023-05-22T22:48:12.481Z,17.10
2023-05-22T22:50:39.366Z,17.10
2023-05-22T22:53:06.167Z,17.00
2023-05-22T22:55:32.948Z,17.00
2023-05-22T22:57:59.629Z,17.00
2023-05-22T23:00:26.388Z,17.00
2023-05-22T23:02:53.107Z,16.90
2023-05-22T23:05:20.193Z,16.90
2023-05-22T23:07:47.833Z,16.90
2023-05-22T23:10:15.195Z,16.90
2023-05-22T23:12:41.944Z,16.80
2023-05-22T23:15:09.081Z,16.70
2023-05-22T23:17:35.775Z,16.70
2023-05-22T23:20:02.414Z,16.60
2023-05-22T23:22:29.068Z,16.60
2023-05-22T23:24:55.730Z,16.60
2023-05-22T23:27:22.354Z,16.50
2023-05-22T23:29:48.922Z,16.50
2023-05-22T23:32:15.619Z,16.60
2023-05-22T23:34:42.237Z,16.60
2023-05-22T23:37:09.024Z,16.50
2023-05-22T23:39:35.721Z,16.50
2023-05-22T23:42:02.336Z,16.50
2023-05-22T23:44:31.938Z,16.50
2023-05-22T23:46:59.653Z,16.50
2023-05-22T23:49:26.654Z,16.50
2023-05-22T23:51:53.458Z,16.60
2023-05-22T23:54:20.158Z,16.50
2023-05-22T23:56:46.770Z,16.50
2023-05-22T23:59:13.456Z,16.50
